Time;durP1;ratioP1;P1;durP2;ratioP2;P2;SDS_P1;SDS_P2;PMS_P1;PMS_P2;Temp;Humidity;BMP_temperature;BMP_pressure;BME280_temperature;BME280_humidity;BME280_pressure;Samples;Min_cycle;Max_cycle;Signal;HPM_P1;HPM_P2
2022/04/20 19:19:45;;;;;;;12.63;11.37;;;;;;;7.91;72.49;99026.94;5123624;27;20530;-79
2022/04/20 19:22:12;;;;;;;14.23;12.93;;;;;;;7.85;74.37;99025.13;5105739;28;20206;-79
2022/04/20 19:24:39;;;;;;;14.50;13.00;;;;;;;7.75;77.37;99026.63;5106537;28;20756;-78
2022/04/20 19:27:06;;;;;;;15.37;13.70;;;;;;;7.66;78.88;99022.59;5107039;28;20184;-80
2022/04/20 19:29:32;;;;;;;14.13;12.83;;;;;;;7.56;82.04;99023.06;5107275;28;20697;-79
2022/04/20 19:32:00;;;;;;;13.20;11.90;;;;;;;7.46;82.24;99018.22;5106765;28;20178;-79
2022/04/20 19:34:27;;;;;;;13.70;12.47;;;;;;;7.38;81.32;99020.31;5107599;28;20184;-78
2022/04/20 19:36:53;;;;;;;13.53;12.23;;;;;;;7.27;82.68;99019.16;5106888;28;20700;-78
2022/04/20 19:39:21;;;;;;;13.67;12.47;;;;;;;7.23;83.03;99019.78;5107199;28;20207;-79
2022/04/20 19:41:48;;;;;;;13.87;12.57;;;;;;;7.14;86.36;99019.19;5106264;28;20183;-78
2022/04/20 19:44:16;;;;;;;14.43;13.13;;;;;;;7.05;86.98;99013.28;5106654;28;20626;-78
2022/04/20 19:46:43;;;;;;;13.83;12.33;;;;;;;7.00;87.97;99010.44;5105562;28;20215;-79
2022/04/20 19:49:10;;;;;;;15.00;13.60;;;;;;;6.93;87.71;99012.34;5106299;28;20192;-79
2022/04/20 19:51:37;;;;;;;16.17;14.57;;;;;;;6.86;87.52;99014.19;5106742;28;20666;-78
2022/04/20 19:54:07;;;;;;;14.37;12.97;;;;;;;6.81;89.49;99016.66;5106922;28;20252;-78
2022/04/20 19:56:34;;;;;;;15.10;13.70;;;;;;;6.78;93.33;99013.59;5107243;28;20214;-79
2022/04/20 19:59:01;;;;;;;14.90;13.53;;;;;;;6.71;94.72;99013.66;5106980;28;20290;-79
2022/04/20 20:01:27;;;;;;;15.67;14.23;;;;;;;6.59;97.03;99007.31;5106614;28;20198;-78
2022/04/20 20:03:54;;;;;;;15.43;14.03;;;;;;;6.49;100.00;99014.91;5106895;28;20186;-79
2022/04/20 20:06:22;;;;;;;14.90;13.50;;;;;;;6.46;99.91;99010.84;5106941;28;20640;-78
2022/04/20 20:08:55;;;;;;;14.37;12.97;;;;;;;6.39;100.00;99006.56;5107068;28;20278;-78
2022/04/20 20:11:23;;;;;;;14.30;12.90;;;;;;;6.32;100.00;99008.41;5106083;28;20315;-78
2022/04/20 20:13:51;;;;;;;15.03;13.50;;;;;;;6.24;100.00;99001.47;5107272;28;20184;-78
2022/04/20 20:16:19;;;;;;;13.33;12.13;;;;;;;6.11;100.00;99004.94;5105878;28;20271;-78
2022/04/20 20:18:46;;;;;;;15.50;12.87;;;;;;;6.04;100.00;99009.47;5105009;28;20328;-78
2022/04/20 20:21:13;;;;;;;12.40;11.23;;;;;;;5.96;100.00;98996.38;5105504;28;20290;-78
2022/04/20 20:31:56;;;;;;;11.93;10.83;;;;;;;5.78;100.00;98998.81;5093383;28;20176;-78
2022/04/20 20:34:24;;;;;;;11.63;10.53;;;;;;;5.71;100.00;98998.78;5091545;28;20185;-78
2022/04/20 20:36:52;;;;;;;11.63;10.50;;;;;;;5.61;100.00;98992.22;5093091;28;20216;-78
2022/04/20 20:39:19;;;;;;;10.13;9.13;;;;;;;5.57;100.00;98989.16;5092717;28;20807;-78
2022/04/20 20:41:48;;;;;;;10.10;9.20;;;;;;;5.54;100.00;98992.25;5092084;28;20702;-78
2022/04/20 20:44:15;;;;;;;10.77;9.67;;;;;;;5.43;100.00;98986.69;5091241;28;20176;-78
2022/04/20 20:46:42;;;;;;;10.63;9.70;;;;;;;5.33;100.00;98985.25;5092905;28;20221;-79
2022/04/20 20:51:59;;;;;;;10.90;10.00;;;;;;;5.30;100.00;98980.34;5091783;28;20192;-78
2022/04/20 20:54:26;;;;;;;10.70;9.70;;;;;;;5.23;100.00;98978.69;5092343;28;20181;-78
2022/04/20 20:56:52;;;;;;;11.53;10.43;;;;;;;5.24;100.00;98981.13;5092528;28;20180;-78
2022/04/20 20:59:19;;;;;;;11.30;10.33;;;;;;;5.10;100.00;98983.97;5091780;28;20234;-78
2022/04/20 21:01:46;;;;;;;11.77;10.77;;;;;;;5.01;100.00;98977.19;5091389;28;20185;-78
2022/04/20 21:04:13;;;;;;;11.57;10.47;;;;;;;4.99;100.00;98977.41;5092070;28;20188;-78
2022/04/20 21:06:40;;;;;;;11.47;10.37;;;;;;;4.97;100.00;98975.97;5092581;28;20231;-79
2022/04/20 21:09:06;;;;;;;11.60;10.60;;;;;;;4.90;100.00;98970.63;5091985;28;20245;-78
2022/04/20 21:11:33;;;;;;;12.90;11.70;;;;;;;4.86;100.00;98974.69;5091931;28;20797;-79
2022/04/20 21:14:02;;;;;;;13.17;11.97;;;;;;;4.82;100.00;98971.63;5090629;28;20184;-78
2022/04/20 21:16:29;;;;;;;13.93;12.73;;;;;;;4.81;100.00;98972.63;5092516;28;20219;-78
2022/04/20 21:18:56;;;;;;;14.10;12.70;;;;;;;4.78;100.00;98982.84;5091942;28;20307;-79
2022/04/20 21:21:23;;;;;;;14.27;12.97;;;;;;;4.74;100.00;98976.28;5090967;28;20241;-78
2022/04/20 21:23:50;;;;;;;14.03;12.73;;;;;;;4.69;100.00;98978.72;5091788;28;20204;-78
2022/04/20 21:26:17;;;;;;;14.17;12.87;;;;;;;4.68;100.00;98977.06;5092016;28;20211;-78
2022/04/20 21:28:44;;;;;;;13.93;12.60;;;;;;;4.62;100.00;98970.72;5090230;28;20215;-77
2022/04/20 21:31:12;;;;;;;13.77;12.47;;;;;;;4.57;100.00;98983.78;5091346;28;20209;-78
2022/04/20 21:33:38;;;;;;;13.73;12.43;;;;;;;4.56;100.00;98979.47;5091426;28;20197;-79
2022/04/20 21:36:05;;;;;;;13.53;12.23;;;;;;;4.52;100.00;98988.84;5091936;28;20223;-78
2022/04/20 21:38:32;;;;;;;13.73;12.47;;;;;;;4.48;100.00;98981.47;5091387;28;20208;-78
2022/04/20 21:40:59;;;;;;;13.80;12.60;;;;;;;4.43;100.00;98985.50;5090527;28;20180;-78
2022/04/20 21:43:28;;;;;;;14.03;12.70;;;;;;;4.42;100.00;98991.03;5090610;28;20187;-78
2022/04/20 21:45:57;;;;;;;14.20;12.80;;;;;;;4.36;100.00;98982.03;5090590;28;20704;-78
2022/04/20 21:48:27;;;;;;;13.80;12.50;;;;;;;4.36;100.00;98989.16;5091159;28;20227;-78
2022/04/20 21:50:55;;;;;;;14.73;13.37;;;;;;;4.31;100.00;98984.44;5091035;28;20219;-79
2022/04/20 21:53:22;;;;;;;14.70;13.30;;;;;;;4.29;100.00;98981.16;5090615;28;20482;-78
2022/04/20 21:55:49;;;;;;;14.63;13.33;;;;;;;4.29;100.00;98985.66;5091431;28;20275;-78
2022/04/20 21:58:16;;;;;;;14.80;13.40;;;;;;;4.19;100.00;98988.66;5090885;28;20188;-79
2022/04/20 22:00:59;;;;;;;15.37;13.87;;;;;;;4.15;100.00;98989.25;5090902;28;20176;-78
2022/04/20 22:09:26;;;;;;;14.60;13.20;;;;;;;3.97;100.00;98979.91;5090982;28;20624;-79
2022/04/20 22:11:57;;;;;;;14.47;13.17;;;;;;;3.94;100.00;98987.44;5089626;28;20189;-78
2022/04/20 22:14:29;;;;;;;14.23;13.03;;;;;;;3.88;100.00;98982.91;5091252;28;20200;-78
2022/04/20 22:17:00;;;;;;;14.73;13.23;;;;;;;3.81;100.00;98990.00;5090806;28;20670;-79
2022/04/20 22:19:27;;;;;;;15.10;13.53;;;;;;;3.72;100.00;98989.31;5091201;28;20227;-78
2022/04/20 22:21:55;;;;;;;14.33;13.00;;;;;;;3.69;100.00;98994.16;5090579;28;20183;-79
2022/04/20 22:24:22;;;;;;;14.77;13.33;;;;;;;3.65;100.00;98983.13;5089430;28;20629;-78
2022/04/20 22:26:50;;;;;;;14.73;13.33;;;;;;;3.61;100.00;98989.00;5091060;28;20207;-78
2022/04/20 22:29:17;;;;;;;15.47;14.00;;;;;;;3.63;100.00;98985.16;5089093;28;20184;-78
2022/04/20 22:31:48;;;;;;;16.00;14.20;;;;;;;3.65;100.00;98988.44;5090405;28;20214;-79
2022/04/20 22:34:15;;;;;;;16.37;14.77;;;;;;;3.65;100.00;98977.00;5090594;28;20289;-78
2022/04/20 22:36:42;;;;;;;15.13;13.53;;;;;;;3.60;100.00;98982.06;5090684;28;20184;-79
2022/04/20 22:39:11;;;;;;;15.77;14.33;;;;;;;3.59;100.00;98977.78;5090155;28;20208;-77
2022/04/20 22:41:39;;;;;;;16.17;14.60;;;;;;;3.53;100.00;98982.84;5090078;28;20207;-78
2022/04/20 22:44:07;;;;;;;16.53;14.97;;;;;;;3.48;100.00;98979.94;5090376;28;20657;-78
2022/04/20 22:46:39;;;;;;;15.93;14.40;;;;;;;3.45;100.00;98972.34;5089399;28;20211;-78
2022/04/20 22:49:05;;;;;;;16.77;15.17;;;;;;;3.39;100.00;98972.31;5089016;28;20182;-78
2022/04/20 22:51:32;;;;;;;16.20;14.70;;;;;;;3.33;100.00;98978.34;5089814;28;20188;-78
2022/04/20 22:54:01;;;;;;;16.27;14.67;;;;;;;3.28;100.00;98975.44;5090290;28;20215;-78
2022/04/20 22:56:28;;;;;;;16.30;14.80;;;;;;;3.21;100.00;98987.81;5090772;28;20718;-77
2022/04/20 22:58:54;;;;;;;16.83;15.23;;;;;;;3.17;100.00;98982.09;5089879;28;20238;-79
2022/04/20 23:01:21;;;;;;;16.40;14.80;;;;;;;3.15;100.00;98983.25;5089415;28;20275;-78
2022/04/20 23:03:48;;;;;;;16.33;14.63;;;;;;;3.13;100.00;98978.16;5089587;28;20212;-78
2022/04/20 23:06:14;;;;;;;16.60;15.00;;;;;;;3.10;100.00;98987.28;5090007;28;20255;-78
2022/04/20 23:08:41;;;;;;;16.67;15.07;;;;;;;3.10;100.00;98986.47;5089849;28;20188;-78
2022/04/20 23:11:09;;;;;;;17.40;15.67;;;;;;;3.10;100.00;98984.66;5089627;28;20204;-78
2022/04/20 23:13:38;;;;;;;16.47;14.93;;;;;;;3.12;100.00;98991.59;5090037;28;20216;-77
2022/04/20 23:16:08;;;;;;;16.80;15.00;;;;;;;3.12;100.00;98984.47;5089698;28;20184;-77
2022/04/20 23:18:36;;;;;;;17.30;15.57;;;;;;;3.09;100.00;98990.94;5089850;28;20223;-77
2022/04/20 23:21:03;;;;;;;16.63;14.93;;;;;;;3.10;100.00;98978.53;5089800;28;20235;-78
2022/04/20 23:23:29;;;;;;;16.73;15.07;;;;;;;3.10;100.00;98989.94;5089401;28;20274;-77
2022/04/20 23:28:43;;;;;;;17.07;14.67;;;;;;;3.06;100.00;98987.88;5088693;28;20211;-77
2022/04/20 23:31:10;;;;;;;17.03;15.23;;;;;;;3.05;100.00;98980.91;5089842;28;20220;-77
2022/04/20 23:33:37;;;;;;;17.00;15.40;;;;;;;3.02;100.00;98982.13;5089423;28;20647;-77
2022/04/20 23:36:04;;;;;;;16.33;14.83;;;;;;;3.00;100.00;98981.47;5089721;28;20306;-78
2022/04/20 23:38:31;;;;;;;16.57;15.07;;;;;;;3.00;100.00;98985.94;5089553;28;20224;-77
2022/04/20 23:40:58;;;;;;;16.00;14.50;;;;;;;2.99;100.00;98982.47;5089476;28;20204;-77
2022/04/20 23:43:24;;;;;;;16.50;14.93;;;;;;;2.95;100.00;98988.34;5089428;28;20722;-77
2022/04/20 23:45:52;;;;;;;16.17;14.57;;;;;;;2.93;100.00;98975.31;5090349;28;20188;-77
2022/04/20 23:48:18;;;;;;;16.50;14.73;;;;;;;2.90;100.00;98985.41;5089369;28;20260;-78
2022/04/20 23:50:45;;;;;;;15.93;14.43;;;;;;;2.85;100.00;98979.88;5089740;28;20615;-78
2022/04/20 23:53:14;;;;;;;17.27;15.57;;;;;;;2.79;100.00;98975.34;5088742;28;20250;-77
2022/04/20 23:55:41;;;;;;;15.23;13.83;;;;;;;2.70;100.00;98974.63;5089862;28;20192;-77
2022/04/20 23:58:08;;;;;;;17.20;15.40;;;;;;;2.64;100.00;98972.72;5089633;28;20604;-78
